Time;durP1;ratioP1;P1;durP2;ratioP2;P2;SDS_P1;SDS_P2;PMS_P1;PMS_P2;Temp;Humidity;BMP_temperature;BMP_pressure;BME280_temperature;BME280_humidity;BME280_pressure;Samples;Min_cycle;Max_cycle;Signal;HPM_P1;HPM_P2
2022/01/23 00:00:43;;;;;;;10.27;2.15;;;-1.00;99.90;;;;;;5013846;28;20037;-79
2022/01/23 00:03:16;;;;;;;1.75;1.65;;;-1.00;99.90;;;;;;5013639;28;20347;-80
2022/01/23 00:05:44;;;;;;;2.60;1.83;;;-1.00;99.90;;;;;;4997481;28;20604;-79
2022/01/23 00:08:12;;;;;;;4.85;2.10;;;-1.10;99.90;;;;;;5014843;28;20097;-80
2022/01/23 00:10:37;;;;;;;2.80;2.03;;;-1.00;99.90;;;;;;5014985;28;20033;-80
2022/01/23 00:17:16;;;;;;;6.07;3.58;;;-1.00;99.90;;;;;;5014870;28;20517;-80
2022/01/23 00:18:36;;;;;;;4.65;2.63;;;-0.90;99.90;;;;;;5014659;28;20377;-79
2022/01/23 00:21:02;;;;;;;2.95;2.35;;;-0.90;99.90;;;;;;5013639;28;20034;-79
2022/01/23 00:30:17;;;;;;;3.88;2.50;;;-0.80;99.90;;;;;;5014824;28;20164;-82
2022/01/23 00:31:44;;;;;;;5.47;2.50;;;-0.70;99.90;;;;;;5014841;28;20488;-79
2022/01/23 00:34:10;;;;;;;5.47;2.28;;;-0.80;99.90;;;;;;5014681;28;20018;-80
2022/01/23 00:36:36;;;;;;;5.53;2.90;;;-0.80;99.90;;;;;;4996894;28;20050;-78
2022/01/23 00:39:03;;;;;;;3.65;2.85;;;-0.70;99.90;;;;;;5012910;28;20041;-80
2022/01/23 00:41:29;;;;;;;3.85;2.33;;;-0.70;99.90;;;;;;5013290;28;20116;-79
2022/01/23 00:43:55;;;;;;;3.08;2.40;;;-0.70;99.90;;;;;;5013035;28;20053;-80
2022/01/23 00:46:31;;;;;;;2.25;2.10;;;-0.70;99.90;;;;;;5013127;28;20030;-78
2022/01/23 00:51:29;;;;;;;2.67;2.17;;;-0.70;99.90;;;;;;5014563;28;20541;-78
2022/01/23 00:53:57;;;;;;;3.22;2.33;;;-0.70;99.90;;;;;;5012454;28;20036;-78
2022/01/23 00:56:23;;;;;;;4.65;2.20;;;-0.70;99.90;;;;;;5012963;28;20030;-79
2022/01/23 00:58:49;;;;;;;3.22;2.42;;;-0.70;99.90;;;;;;5014165;28;20053;-80
2022/01/23 01:01:15;;;;;;;3.42;2.72;;;-0.70;99.90;;;;;;5014139;28;20049;-80
2022/01/23 01:03:42;;;;;;;4.03;2.60;;;-0.60;99.90;;;;;;5012843;28;20026;-80
2022/01/23 01:06:08;;;;;;;3.45;2.75;;;-0.60;99.90;;;;;;5014234;28;20037;-81
2022/01/23 01:08:34;;;;;;;4.28;2.22;;;-0.50;99.90;;;;;;5012624;28;20029;-80
2022/01/23 01:11:35;;;;;;;5.55;2.92;;;-0.60;99.90;;;;;;5012886;28;20040;-80
2022/01/23 01:35:24;;;;;;;4.95;2.88;;;-0.50;99.90;;;;;;5013738;28;20037;-80
2022/01/23 01:37:51;;;;;;;3.13;2.75;;;-0.40;99.90;;;;;;4995911;28;20041;-80
2022/01/23 01:40:17;;;;;;;5.97;3.28;;;-0.40;99.90;;;;;;5012164;28;20057;-80
2022/01/23 01:42:44;;;;;;;5.32;3.05;;;-0.50;99.90;;;;;;5013413;28;20030;-80
2022/01/23 01:45:10;;;;;;;3.97;2.83;;;-0.40;99.90;;;;;;5013192;28;20853;-78
2022/01/23 01:47:36;;;;;;;8.57;3.63;;;-0.40;99.90;;;;;;5013181;28;20441;-80
2022/01/23 01:50:03;;;;;;;5.13;3.63;;;-0.40;99.90;;;;;;5013243;28;20101;-78
2022/01/23 01:52:29;;;;;;;4.25;3.00;;;-0.40;99.90;;;;;;4995648;28;20029;-80
2022/01/23 01:55:01;;;;;;;4.95;3.72;;;-0.40;99.90;;;;;;4995652;28;20026;-80
2022/01/23 01:57:38;;;;;;;5.72;3.50;;;-0.40;99.90;;;;;;4995410;28;20160;-80
2022/01/23 02:02:55;;;;;;;6.13;3.28;;;-0.50;99.90;;;;;;5013023;28;20454;-78
2022/01/23 02:10:51;;;;;;;6.45;3.17;;;-0.40;99.90;;;;;;5012709;28;20535;-80
2022/01/23 02:13:21;;;;;;;6.43;3.92;;;-0.40;99.90;;;;;;5011506;28;20030;-80
2022/01/23 02:50:55;;;;;;;4.32;2.85;;;-0.40;99.90;;;;;;5012721;28;20452;-79
2022/01/23 02:54:04;;;;;;;4.40;3.20;;;-0.30;99.90;;;;;;5011328;28;20477;-80
2022/01/23 02:56:33;;;;;;;5.20;3.28;;;-0.20;99.90;;;;;;5012346;28;20054;-79
2022/01/23 02:59:11;;;;;;;4.10;3.22;;;-0.30;99.90;;;;;;5011003;28;20034;-80
2022/01/23 03:01:47;;;;;;;5.22;3.10;;;-0.40;99.90;;;;;;5011077;28;20022;-80
2022/01/23 03:04:13;;;;;;;6.35;3.28;;;-0.20;99.90;;;;;;5012180;28;20029;-80
2022/01/23 03:12:03;;;;;;;6.28;3.28;;;-0.30;99.90;;;;;;5016543;28;20017;-80
2022/01/23 03:30:35;;;;;;;5.45;3.35;;;-0.50;99.90;;;;;;5015818;28;20051;-80
2022/01/23 03:33:01;;;;;;;3.70;2.85;;;-0.50;99.90;;;;;;4998213;28;20022;-78
2022/01/23 03:35:27;;;;;;;5.90;4.20;;;-0.60;99.90;;;;;;5014924;28;20041;-78
2022/01/23 03:37:52;;;;;;;4.68;3.30;;;-0.60;99.90;;;;;;4997897;28;20030;-80
2022/01/23 03:40:19;;;;;;;8.20;4.18;;;-0.60;99.90;;;;;;4997650;28;20413;-79
2022/01/23 03:42:46;;;;;;;14.30;6.68;;;-0.60;99.90;;;;;;5015586;28;20022;-80
2022/01/23 03:49:31;;;;;;;17.27;8.45;;;-0.50;99.90;;;;;;5015626;28;20080;-78
2022/01/23 03:50:48;;;;;;;12.30;6.45;;;-0.50;99.90;;;;;;5015393;28;20036;-79
2022/01/23 03:53:15;;;;;;;10.02;5.32;;;-0.50;99.90;;;;;;5013935;28;20018;-80
2022/01/23 03:55:41;;;;;;;10.07;4.95;;;-0.50;99.90;;;;;;4997809;28;20112;-80
2022/01/23 03:58:07;;;;;;;5.95;3.90;;;-0.60;99.90;;;;;;5013994;28;20129;-78
2022/01/23 04:00:33;;;;;;;5.93;4.00;;;-0.50;99.90;;;;;;5015219;28;20506;-80
2022/01/23 04:03:00;;;;;;;6.10;3.70;;;-0.60;99.90;;;;;;5014153;28;20017;-82
2022/01/23 04:05:27;;;;;;;4.75;3.58;;;-0.60;99.90;;;;;;5013935;28;20394;-80
2022/01/23 04:07:52;;;;;;;7.95;3.58;;;-0.60;99.90;;;;;;5014913;28;20036;-80
2022/01/23 04:10:21;;;;;;;5.38;3.63;;;-0.60;99.90;;;;;;4997477;28;20113;-78
2022/01/23 04:16:11;;;;;;;4.38;3.35;;;-0.60;99.90;;;;;;5014921;28;20481;-80
2022/01/23 04:31:49;;;;;;;5.80;3.50;;;-0.60;99.90;;;;;;5015082;28;20084;-79
2022/01/23 05:04:21;;;;;;;10.07;5.05;;;-0.50;99.90;;;;;;5014120;28;20045;-79
2022/01/23 05:06:58;;;;;;;7.88;5.38;;;-0.60;99.90;;;;;;5013339;28;20040;-80
2022/01/23 05:09:25;;;;;;;6.70;4.30;;;-0.60;99.90;;;;;;4996375;28;20119;-80
2022/01/23 05:12:00;;;;;;;6.75;4.50;;;-0.60;99.90;;;;;;5013041;28;20044;-78
2022/01/23 05:14:39;;;;;;;9.23;5.07;;;-0.60;99.90;;;;;;5012649;28;20116;-80
2022/01/23 05:17:07;;;;;;;9.00;4.82;;;-0.70;99.90;;;;;;5012204;28;20535;-80
2022/01/23 05:19:33;;;;;;;6.18;4.38;;;-0.70;99.90;;;;;;5012527;28;20026;-80
2022/01/23 05:24:52;;;;;;;9.18;4.57;;;-0.60;99.90;;;;;;5013592;28;20041;-80
2022/01/23 05:27:18;;;;;;;8.57;4.70;;;-0.70;99.90;;;;;;5013477;28;20065;-78
2022/01/23 05:29:44;;;;;;;9.02;4.18;;;-0.70;99.90;;;;;;4995763;28;20029;-80
2022/01/23 05:32:12;;;;;;;7.93;4.85;;;-0.70;99.90;;;;;;5012294;28;20112;-79
2022/01/23 05:34:39;;;;;;;6.65;4.45;;;-0.70;99.90;;;;;;5012360;28;20084;-78
2022/01/23 05:37:04;;;;;;;10.15;4.80;;;-0.70;99.90;;;;;;5012048;28;20477;-80
2022/01/23 05:39:32;;;;;;;9.50;4.43;;;-0.70;99.90;;;;;;5013194;28;20049;-78
2022/01/23 05:42:05;;;;;;;8.45;6.18;;;-0.60;99.90;;;;;;5012292;28;20025;-80
2022/01/23 05:44:31;;;;;;;7.93;5.28;;;-0.70;99.90;;;;;;5012115;28;20073;-79
2022/01/23 05:46:57;;;;;;;6.53;4.93;;;-0.60;99.90;;;;;;4995473;28;20571;-82
2022/01/23 05:49:22;;;;;;;8.73;4.63;;;-0.70;99.90;;;;;;5011887;28;20018;-80
2022/01/23 05:51:48;;;;;;;7.88;5.07;;;-0.70;99.90;;;;;;5013234;28;20033;-80
2022/01/23 05:54:14;;;;;;;7.40;4.47;;;-0.70;99.90;;;;;;4995532;28;20492;-80
2022/01/23 05:56:40;;;;;;;4.70;3.97;;;-0.60;99.90;;;;;;5012995;28;20506;-80
2022/01/23 05:59:06;;;;;;;4.68;3.80;;;-0.60;99.90;;;;;;5011818;28;20021;-79
2022/01/23 06:01:32;;;;;;;7.03;5.03;;;-0.70;99.90;;;;;;5012079;28;20018;-80
2022/01/23 06:03:57;;;;;;;7.15;4.60;;;-0.80;99.90;;;;;;5013332;28;20026;-79
2022/01/23 06:06:23;;;;;;;5.20;3.95;;;-0.70;99.90;;;;;;5011631;28;20135;-80
2022/01/23 06:08:49;;;;;;;4.40;3.53;;;-0.70;99.90;;;;;;5012099;28;20032;-78
2022/01/23 06:11:15;;;;;;;5.40;3.53;;;-0.70;99.90;;;;;;4995330;28;20120;-78
2022/01/23 06:13:41;;;;;;;6.35;3.92;;;-0.70;99.90;;;;;;5011661;28;20018;-80
2022/01/23 06:16:07;;;;;;;7.03;4.05;;;-0.60;99.90;;;;;;5011661;28;20389;-80
2022/01/23 06:18:35;;;;;;;5.07;3.70;;;-0.60;99.90;;;;;;5011351;28;20068;-80
2022/01/23 06:21:01;;;;;;;5.55;4.18;;;-0.60;99.90;;;;;;5011572;28;20034;-80
2022/01/23 06:23:30;;;;;;;7.60;4.88;;;-0.70;99.90;;;;;;5012569;28;20037;-78
2022/01/23 06:25:56;;;;;;;10.23;5.47;;;-0.70;99.90;;;;;;5012665;28;20038;-79
2022/01/23 06:28:37;;;;;;;10.50;6.65;;;-0.70;99.90;;;;;;5012447;28;20018;-82
2022/01/23 06:31:03;;;;;;;8.63;6.72;;;-0.70;99.90;;;;;;5011298;28;20172;-80
2022/01/23 06:33:29;;;;;;;6.45;5.40;;;-0.70;99.90;;;;;;5010922;28;20108;-80
2022/01/23 06:35:54;;;;;;;9.75;6.50;;;-0.60;99.90;;;;;;5011119;28;20034;-80
2022/01/23 06:38:20;;;;;;;8.05;6.10;;;-0.70;99.90;;;;;;5011259;28;20513;-80
2022/01/23 06:40:46;;;;;;;9.48;6.53;;;-0.70;99.90;;;;;;5012526;28;20042;-79
2022/01/23 06:43:11;;;;;;;9.52;7.35;;;-0.70;99.90;;;;;;5012741;28;20462;-79
2022/01/23 06:45:37;;;;;;;10.05;7.10;;;-0.70;99.90;;;;;;5010995;28;20390;-80
2022/01/23 06:48:03;;;;;;;6.68;5.22;;;-0.70;99.90;;;;;;4994920;28;20485;-79
2022/01/23 06:50:30;;;;;;;7.25;5.30;;;-0.70;99.90;;;;;;4996105;28;20054;-80
2022/01/23 06:52:55;;;;;;;7.20;4.47;;;-0.70;99.90;;;;;;5017623;28;20030;-80
2022/01/23 06:55:24;;;;;;;11.68;6.55;;;-0.20;99.90;;;;;;5019422;28;20038;-79
2022/01/23 06:57:50;;;;;;;7.90;5.97;;;-0.10;99.90;;;;;;5018045;28;20040;-78
2022/01/23 07:00:16;;;;;;;8.93;5.35;;;0.00;99.90;;;;;;5019181;28;20096;-78
2022/01/23 07:02:41;;;;;;;5.60;4.38;;;-0.10;99.90;;;;;;5018342;28;20060;-79
2022/01/23 07:05:07;;;;;;;7.90;4.63;;;-0.20;99.90;;;;;;5019600;28;20044;-79
2022/01/23 07:07:33;;;;;;;7.13;5.95;;;-0.20;99.90;;;;;;5020199;28;20040;-81
2022/01/23 07:09:59;;;;;;;6.35;5.28;;;-0.30;99.90;;;;;;5019010;28;20021;-78
2022/01/23 07:12:24;;;;;;;9.95;5.45;;;-0.30;99.90;;;;;;5019109;28;20026;-78
2022/01/23 07:14:50;;;;;;;7.72;5.25;;;-0.30;99.90;;;;;;5018913;28;20030;-78
2022/01/23 07:17:16;;;;;;;4.47;4.07;;;-0.20;99.90;;;;;;5001431;28;20026;-79
2022/01/23 07:19:41;;;;;;;6.72;4.97;;;-0.20;99.90;;;;;;5001543;28;20599;-80
2022/01/23 07:22:07;;;;;;;8.10;6.00;;;-0.20;99.90;;;;;;5019052;28;20030;-80
2022/01/23 07:24:33;;;;;;;6.82;5.55;;;-0.10;99.90;;;;;;5019126;28;20063;-78
2022/01/23 07:27:01;;;;;;;9.05;5.88;;;-0.10;99.90;;;;;;5017358;28;20022;-79
2022/01/23 07:29:26;;;;;;;13.73;5.60;;;-0.20;99.90;;;;;;5018203;28;20381;-78
2022/01/23 07:31:57;;;;;;;9.82;5.35;;;-0.10;99.90;;;;;;5017449;28;20025;-79
2022/01/23 07:34:24;;;;;;;9.23;5.50;;;-0.10;99.90;;;;;;5018972;28;20026;-79
2022/01/23 07:36:50;;;;;;;10.27;5.88;;;-0.10;99.90;;;;;;5017443;28;20028;-78
2022/01/23 07:39:15;;;;;;;9.13;5.55;;;-0.10;99.90;;;;;;5017413;28;20128;-78
2022/01/23 07:41:41;;;;;;;10.63;6.10;;;-0.10;99.90;;;;;;5001645;28;20030;-79
2022/01/23 07:44:07;;;;;;;8.85;5.60;;;-0.10;99.90;;;;;;5001006;28;20433;-79
2022/01/23 07:46:33;;;;;;;9.75;5.93;;;-0.10;99.90;;;;;;5018668;28;20037;-79
2022/01/23 07:48:59;;;;;;;12.48;6.60;;;-0.10;99.90;;;;;;5017510;28;20057;-78
2022/01/23 07:51:25;;;;;;;12.20;7.70;;;-0.10;99.90;;;;;;5017357;28;20462;-80
2022/01/23 07:53:51;;;;;;;12.63;6.88;;;-0.10;99.90;;;;;;5017395;28;20049;-79
2022/01/23 07:56:17;;;;;;;9.40;6.53;;;0.00;99.90;;;;;;5017434;28;20030;-80
2022/01/23 07:58:42;;;;;;;8.95;6.13;;;0.00;99.90;;;;;;5017346;28;20022;-78
2022/01/23 08:01:08;;;;;;;10.80;7.43;;;0.10;99.90;;;;;;5000666;28;20049;-79
2022/01/23 08:03:34;;;;;;;9.75;6.75;;;0.10;99.90;;;;;;5014706;28;20800;-80
2022/01/23 08:06:00;;;;;;;13.02;7.55;;;0.10;99.90;;;;;;5014399;28;20037;-77
2022/01/23 08:08:26;;;;;;;12.40;6.47;;;0.10;99.90;;;;;;5014258;28;20069;-78
2022/01/23 08:10:52;;;;;;;13.75;8.23;;;0.30;99.90;;;;;;5015644;28;20061;-79
2022/01/23 08:13:19;;;;;;;10.07;6.68;;;0.30;99.90;;;;;;5015322;28;20022;-81
2022/01/23 08:15:44;;;;;;;13.25;8.63;;;0.30;99.90;;;;;;4997735;28;20014;-79
2022/01/23 08:18:10;;;;;;;27.98;14.10;;;0.40;99.90;;;;;;5017962;28;20485;-82
2022/01/23 08:20:36;;;;;;;20.23;10.35;;;0.40;99.90;;;;;;5004924;28;20080;-80
2022/01/23 08:23:03;;;;;;;15.82;8.82;;;0.50;99.90;;;;;;5003887;28;20481;-80
2022/01/23 08:25:30;;;;;;;11.65;6.47;;;0.60;99.90;;;;;;5019278;28;20038;-81
2022/01/23 08:27:55;;;;;;;10.30;5.68;;;0.70;99.90;;;;;;5014440;28;20030;-79
2022/01/23 08:30:22;;;;;;;15.43;9.07;;;0.80;99.90;;;;;;5015377;28;20053;-79
2022/01/23 08:32:47;;;;;;;8.65;6.45;;;0.90;99.90;;;;;;5015153;28;20030;-79
2022/01/23 08:35:14;;;;;;;10.20;6.35;;;0.90;99.90;;;;;;5015140;28;20098;-79
2022/01/23 08:37:39;;;;;;;28.55;23.40;;;1.00;99.90;;;;;;5014931;28;20026;-79
2022/01/23 08:40:16;;;;;;;14.95;11.32;;;1.00;99.90;;;;;;5014621;28;20129;-79
2022/01/23 08:42:42;;;;;;;11.85;8.75;;;1.10;99.90;;;;;;5014741;28;20030;-80
2022/01/23 08:45:09;;;;;;;11.20;7.28;;;1.20;99.90;;;;;;5013298;28;20125;-78
2022/01/23 08:47:34;;;;;;;9.93;6.40;;;1.20;99.90;;;;;;5014799;28;20028;-81
2022/01/23 08:50:00;;;;;;;8.90;6.40;;;1.30;99.90;;;;;;5013608;28;20022;-80
2022/01/23 08:52:26;;;;;;;7.07;5.85;;;1.30;99.90;;;;;;5014598;28;20022;-79
2022/01/23 08:54:56;;;;;;;9.90;6.15;;;1.20;99.90;;;;;;5013159;28;20042;-78
2022/01/23 08:57:23;;;;;;;8.57;5.70;;;1.40;99.90;;;;;;5012799;28;20470;-78
2022/01/23 08:59:49;;;;;;;9.38;7.18;;;1.30;99.90;;;;;;5013243;28;20049;-79
2022/01/23 09:02:16;;;;;;;12.13;7.32;;;1.30;99.90;;;;;;5014553;28;20366;-79
2022/01/23 09:04:44;;;;;;;24.35;11.85;;;1.40;99.90;;;;;;5014260;28;20030;-78
2022/01/23 09:07:10;;;;;;;19.25;10.40;;;1.40;99.90;;;;;;5013034;28;20045;-79
2022/01/23 09:09:40;;;;;;;21.55;9.68;;;1.50;99.90;;;;;;5013634;28;20474;-79
2022/01/23 09:12:28;;;;;;;15.30;9.48;;;1.50;99.90;;;;;;5012883;28;20022;-78
2022/01/23 09:14:54;;;;;;;12.95;9.35;;;1.50;99.90;;;;;;5014622;28;20026;-81
2022/01/23 09:17:20;;;;;;;10.52;7.70;;;1.60;99.90;;;;;;5001716;28;20026;-84
2022/01/23 09:19:47;;;;;;;12.75;8.10;;;1.70;99.90;;;;;;5017174;28;20083;-85
2022/01/23 09:22:14;;;;;;;13.13;9.18;;;1.70;99.90;;;;;;5002813;28;20034;-83
2022/01/23 09:24:40;;;;;;;14.77;11.30;;;1.80;99.90;;;;;;4999845;28;20034;-83
2022/01/23 09:27:18;;;;;;;14.40;8.40;;;1.80;99.90;;;;;;5029315;28;20026;-78
2022/01/23 09:30:17;;;;;;;11.48;8.05;;;1.80;99.90;;;;;;5025455;28;20030;-79
2022/01/23 09:32:45;;;;;;;15.05;9.27;;;2.00;99.90;;;;;;5023508;28;20038;-84
2022/01/23 09:35:11;;;;;;;13.73;8.68;;;1.90;99.90;;;;;;4998727;28;20359;-79
2022/01/23 09:37:37;;;;;;;13.93;8.95;;;1.90;99.90;;;;;;4997307;28;20030;-82
2022/01/23 09:40:05;;;;;;;11.60;7.72;;;1.90;99.90;;;;;;5003317;28;20050;-80
2022/01/23 09:42:44;;;;;;;10.35;7.63;;;1.80;99.90;;;;;;4998516;28;20026;-85
2022/01/23 09:45:12;;;;;;;12.27;7.05;;;1.80;99.90;;;;;;5001952;28;20038;-85
2022/01/23 09:47:40;;;;;;;13.35;7.85;;;1.70;99.90;;;;;;4997399;28;20436;-81
2022/01/23 09:50:12;;;;;;;10.55;7.25;;;1.80;99.90;;;;;;5016426;28;20109;-83
2022/01/23 09:52:40;;;;;;;10.40;7.10;;;1.90;99.90;;;;;;5004810;28;20030;-84
2022/01/23 09:55:11;;;;;;;12.27;8.30;;;1.80;99.90;;;;;;5004399;28;20022;-83
2022/01/23 09:57:48;;;;;;;10.45;7.07;;;2.00;99.90;;;;;;4998546;28;20026;-83
2022/01/23 10:00:18;;;;;;;11.77;7.65;;;2.00;99.90;;;;;;4997437;28;20022;-80
2022/01/23 10:02:46;;;;;;;9.85;7.50;;;1.90;99.90;;;;;;4997148;28;20017;-82
2022/01/23 10:05:12;;;;;;;9.90;8.18;;;2.00;99.90;;;;;;4997211;28;20498;-78
2022/01/23 10:07:40;;;;;;;12.15;7.28;;;2.10;99.90;;;;;;4995966;28;20030;-78
2022/01/23 10:10:15;;;;;;;10.95;7.78;;;2.30;99.90;;;;;;4998544;28;20026;-84
2022/01/23 10:12:43;;;;;;;13.70;9.60;;;2.50;99.90;;;;;;4998431;28;20021;-79
2022/01/23 10:15:10;;;;;;;15.20;9.65;;;2.60;99.90;;;;;;5016644;28;20029;-81
2022/01/23 10:17:36;;;;;;;10.07;8.05;;;2.80;99.90;;;;;;4998113;28;20030;-80
2022/01/23 10:20:05;;;;;;;10.65;7.32;;;3.00;99.90;;;;;;5013884;28;20033;-80
2022/01/23 10:22:32;;;;;;;8.85;7.75;;;3.00;99.90;;;;;;5014836;28;20033;-84
2022/01/23 10:25:08;;;;;;;7.63;5.93;;;3.10;99.90;;;;;;4997912;28;20115;-81
2022/01/23 10:28:00;;;;;;;10.05;6.65;;;3.10;99.90;;;;;;4997136;28;20378;-81
2022/01/23 10:30:28;;;;;;;8.73;6.95;;;3.30;99.90;;;;;;4996595;28;20083;-81
2022/01/23 10:32:57;;;;;;;8.23;6.40;;;3.30;99.90;;;;;;4997249;28;20022;-81
2022/01/23 10:35:24;;;;;;;10.38;7.90;;;3.50;99.90;;;;;;5013499;28;20026;-81
2022/01/23 10:37:52;;;;;;;9.45;5.68;;;3.60;99.90;;;;;;5013884;28;20034;-79
2022/01/23 10:40:30;;;;;;;12.15;7.00;;;3.60;99.90;;;;;;4995924;28;20667;-81
2022/01/23 10:48:40;;;;;;;8.95;5.47;;;3.60;99.90;;;;;;5013680;28;20045;-79
2022/01/23 10:51:24;;;;;;;7.85;5.85;;;3.60;99.90;;;;;;4995575;28;20022;-78
2022/01/23 10:54:09;;;;;;;7.13;5.35;;;3.60;99.90;;;;;;5012951;28;20096;-78
2022/01/23 10:56:54;;;;;;;6.93;5.15;;;3.70;99.90;;;;;;4995280;28;20073;-79
2022/01/23 10:59:20;;;;;;;10.82;6.30;;;3.70;99.90;;;;;;5012963;28;20018;-78
2022/01/23 11:01:59;;;;;;;8.52;6.35;;;3.90;99.90;;;;;;5012689;28;20088;-79
2022/01/23 11:04:25;;;;;;;8.73;5.50;;;3.90;99.90;;;;;;4994677;28;20061;-79
2022/01/23 11:06:54;;;;;;;6.93;5.20;;;4.00;99.90;;;;;;5011451;28;20038;-79
2022/01/23 11:09:28;;;;;;;7.95;4.97;;;4.00;99.90;;;;;;4995492;28;20022;-78
2022/01/23 11:12:01;;;;;;;7.72;5.43;;;4.00;99.90;;;;;;4995308;28;20033;-79
2022/01/23 11:17:22;;;;;;;9.00;5.43;;;3.90;99.90;;;;;;5012743;28;20037;-80
2022/01/23 11:19:52;;;;;;;9.55;6.07;;;4.00;99.90;;;;;;4995150;28;20030;-80
2022/01/23 11:22:39;;;;;;;12.55;6.03;;;4.00;99.90;;;;;;4995557;28;20050;-79
2022/01/23 11:25:08;;;;;;;7.85;4.78;;;4.10;99.90;;;;;;5011654;28;20115;-80
2022/01/23 11:27:40;;;;;;;8.45;6.05;;;4.10;99.90;;;;;;5012519;28;20018;-78
2022/01/23 11:30:11;;;;;;;8.32;5.38;;;4.20;99.90;;;;;;4994528;28;20446;-79
2022/01/23 11:32:40;;;;;;;7.88;5.78;;;4.20;99.90;;;;;;4994645;28;20029;-79
2022/01/23 11:35:11;;;;;;;9.82;5.88;;;4.20;99.90;;;;;;5012998;28;20033;-79
2022/01/23 11:37:45;;;;;;;12.68;6.45;;;4.30;99.90;;;;;;4996849;28;20448;-80
2022/01/23 11:40:30;;;;;;;7.15;5.43;;;4.30;99.90;;;;;;5016285;28;20153;-79
2022/01/23 11:54:02;;;;;;;7.73;5.20;;;4.50;99.90;;;;;;5016110;28;20462;-79
2022/01/23 11:56:29;;;;;;;7.68;4.70;;;4.60;99.90;;;;;;5015994;28;20259;-79
2022/01/23 11:59:13;;;;;;;7.85;5.25;;;4.70;99.90;;;;;;5015940;28;20018;-79
2022/01/23 12:01:40;;;;;;;6.90;5.05;;;4.60;99.90;;;;;;4998593;28;20083;-79
2022/01/23 12:04:06;;;;;;;5.60;4.70;;;4.50;99.90;;;;;;4998484;28;20029;-79
2022/01/23 12:06:32;;;;;;;7.85;4.82;;;4.50;99.90;;;;;;5015828;28;20026;-79
2022/01/23 12:09:10;;;;;;;6.30;5.13;;;4.50;99.90;;;;;;4998100;28;20087;-78
2022/01/23 12:11:53;;;;;;;6.78;4.90;;;4.50;99.90;;;;;;4998341;28;20026;-79
2022/01/23 12:16:57;;;;;;;6.13;4.28;;;4.60;99.90;;;;;;5015438;28;20026;-79
2022/01/23 12:19:24;;;;;;;;;;;4.60;99.90;;;;;;4998286;28;20461;-77
2022/01/23 12:21:53;;;;;;;6.47;4.55;;;4.70;99.90;;;;;;5014108;28;20323;-78
2022/01/23 12:24:22;;;;;;;4.75;3.60;;;4.80;99.90;;;;;;5014034;28;20107;-78
2022/01/23 12:26:49;;;;;;;6.35;5.35;;;4.80;99.90;;;;;;4997478;28;20411;-78
2022/01/23 12:29:25;;;;;;;5.97;4.07;;;4.80;99.90;;;;;;5013991;28;20030;-78
2022/01/23 12:32:27;;;;;;;7.45;5.00;;;4.90;99.90;;;;;;5014057;28;20030;-78
2022/01/23 12:34:58;;;;;;;6.65;4.55;;;4.90;99.90;;;;;;5013565;28;20404;-78
2022/01/23 12:37:25;;;;;;;7.22;4.90;;;4.90;99.90;;;;;;4997326;28;20113;-79
2022/01/23 12:40:27;;;;;;;6.20;4.80;;;4.80;99.90;;;;;;4997386;28;20117;-80
2022/01/23 12:43:09;;;;;;;7.30;4.97;;;4.60;99.90;;;;;;5013855;28;20034;-79
2022/01/23 12:45:56;;;;;;;7.80;4.50;;;4.70;99.90;;;;;;4997524;28;20092;-80
2022/01/23 12:48:25;;;;;;;5.10;3.97;;;4.70;99.90;;;;;;4997228;28;20426;-79
2022/01/23 12:51:02;;;;;;;7.40;4.07;;;4.70;99.90;;;;;;4997304;28;20030;-79
2022/01/23 12:53:46;;;;;;;6.80;4.50;;;4.80;99.90;;;;;;4997600;28;20101;-80
2022/01/23 12:56:22;;;;;;;15.73;9.80;;;4.80;99.90;;;;;;4996664;28;20184;-79
2022/01/23 12:59:04;;;;;;;6.55;4.53;;;4.90;99.90;;;;;;5014539;28;20034;-79
2022/01/23 13:01:30;;;;;;;4.65;3.85;;;5.00;99.90;;;;;;4999290;28;20026;-81
2022/01/23 13:03:58;;;;;;;4.80;4.15;;;5.00;99.90;;;;;;5018357;28;20040;-82
2022/01/23 13:06:42;;;;;;;7.95;4.63;;;5.00;99.90;;;;;;5001378;28;20037;-82
2022/01/23 13:09:23;;;;;;;5.10;4.22;;;5.00;99.90;;;;;;4997686;28;20022;-81
2022/01/23 13:11:55;;;;;;;7.25;4.60;;;5.10;99.90;;;;;;5014750;28;20114;-79
2022/01/23 13:14:27;;;;;;;8.35;4.93;;;5.10;99.90;;;;;;4997207;28;20100;-79
2022/01/23 13:17:33;;;;;;;6.47;4.68;;;5.10;99.90;;;;;;4997214;28;20105;-79
2022/01/23 13:26:23;;;;;;;5.28;3.95;;;5.10;99.90;;;;;;5010526;28;20034;-79
2022/01/23 13:30:54;;;;;;;6.57;5.03;;;5.20;99.90;;;;;;5014563;28;20117;-79
2022/01/23 13:33:22;;;;;;;6.70;5.13;;;5.20;99.90;;;;;;4996704;28;20030;-79
2022/01/23 13:35:52;;;;;;;5.20;4.05;;;5.20;99.90;;;;;;4996677;28;20120;-79
2022/01/23 13:38:21;;;;;;;6.40;4.38;;;5.10;99.90;;;;;;5014181;28;20100;-80
2022/01/23 13:40:56;;;;;;;9.00;5.78;;;5.10;99.90;;;;;;4993600;28;20050;-81
2022/01/23 13:59:18;;;;;;;5.28;3.50;;;5.00;99.90;;;;;;4994569;28;20122;-79
2022/01/23 14:02:18;;;;;;;4.20;2.97;;;5.00;99.90;;;;;;4992124;28;20038;-80
2022/01/23 14:04:49;;;;;;;4.22;3.63;;;5.00;99.90;;;;;;4990986;28;20030;-80
2022/01/23 14:07:23;;;;;;;6.88;3.70;;;4.90;99.90;;;;;;4992817;28;20360;-80
2022/01/23 14:09:50;;;;;;;7.07;4.22;;;4.90;99.90;;;;;;4993117;28;20022;-79
2022/01/23 14:12:19;;;;;;;5.22;3.50;;;4.90;99.90;;;;;;5009308;28;20026;-79
2022/01/23 14:15:05;;;;;;;8.63;5.50;;;4.90;99.90;;;;;;4992606;28;20380;-79
2022/01/23 14:17:36;;;;;;;9.15;6.45;;;5.00;99.90;;;;;;4992481;28;20030;-80
2022/01/23 14:20:16;;;;;;;7.00;4.53;;;5.00;99.90;;;;;;4992746;28;20026;-79
2022/01/23 14:22:47;;;;;;;6.13;4.07;;;5.00;99.90;;;;;;4994007;28;20092;-78
2022/01/23 14:25:28;;;;;;;5.15;3.63;;;5.00;99.90;;;;;;4992606;28;20038;-81
2022/01/23 14:28:05;;;;;;;5.07;3.92;;;5.00;99.90;;;;;;5008438;28;20023;-80
2022/01/23 14:30:31;;;;;;;4.95;3.63;;;5.00;99.90;;;;;;4992150;28;20129;-79
2022/01/23 14:33:05;;;;;;;4.68;3.53;;;4.90;99.90;;;;;;5008428;28;20033;-80
2022/01/23 14:35:33;;;;;;;5.20;3.60;;;4.90;99.90;;;;;;4991574;28;20118;-80
2022/01/23 14:38:14;;;;;;;4.70;3.90;;;4.80;99.90;;;;;;4991647;28;20125;-79
2022/01/23 14:40:58;;;;;;;5.47;3.75;;;4.70;99.90;;;;;;5008326;28;20064;-79
2022/01/23 14:43:33;;;;;;;6.95;4.18;;;4.70;99.90;;;;;;5007945;28;20022;-78
2022/01/23 14:46:00;;;;;;;6.50;4.90;;;4.70;99.90;;;;;;4992893;28;20030;-79
2022/01/23 14:48:26;;;;;;;12.40;7.30;;;4.70;99.90;;;;;;5007782;28;20023;-79
2022/01/23 14:50:54;;;;;;;14.30;8.18;;;4.60;99.90;;;;;;5007841;28;20044;-78
2022/01/23 14:53:23;;;;;;;14.75;7.70;;;4.50;99.90;;;;;;5007435;28;20378;-77
2022/01/23 14:55:53;;;;;;;24.98;15.73;;;4.40;99.90;;;;;;4992931;28;20034;-82
2022/01/23 14:58:21;;;;;;;16.88;10.15;;;4.30;99.90;;;;;;5011529;28;20026;-83
2022/01/23 15:00:50;;;;;;;45.03;27.58;;;4.20;99.90;;;;;;5014055;28;20026;-84
2022/01/23 15:03:17;;;;;;;24.15;16.25;;;4.10;99.90;;;;;;4995969;28;20018;-81
2022/01/23 15:05:42;;;;;;;12.55;8.45;;;4.10;99.90;;;;;;5010185;28;20045;-82
2022/01/23 15:08:12;;;;;;;11.48;7.07;;;4.00;99.90;;;;;;4994699;28;20101;-81
2022/01/23 15:10:41;;;;;;;12.23;9.40;;;3.90;99.90;;;;;;5009543;28;20124;-79
2022/01/23 15:13:07;;;;;;;15.00;10.98;;;3.90;99.90;;;;;;5012374;28;20023;-82
2022/01/23 15:15:34;;;;;;;12.10;7.88;;;3.90;99.90;;;;;;4996817;28;20038;-81
2022/01/23 15:18:00;;;;;;;11.38;7.22;;;3.80;99.90;;;;;;4998688;28;20102;-84
2022/01/23 15:20:26;;;;;;;13.82;8.80;;;3.80;99.90;;;;;;5015180;28;20034;-87
2022/01/23 15:22:52;;;;;;;9.85;7.03;;;3.70;99.90;;;;;;5014155;28;20516;-81
2022/01/23 15:25:19;;;;;;;9.70;7.00;;;3.70;99.90;;;;;;5012630;28;20040;-80
2022/01/23 15:27:46;;;;;;;8.98;6.18;;;3.70;99.90;;;;;;5012303;28;20037;-80
2022/01/23 15:30:16;;;;;;;16.73;11.25;;;3.60;99.90;;;;;;5013282;28;20045;-83
2022/01/23 15:32:42;;;;;;;13.70;9.18;;;3.60;99.90;;;;;;5012191;28;20034;-82
2022/01/23 15:35:09;;;;;;;10.32;7.63;;;3.50;99.90;;;;;;5012463;28;20072;-80
2022/01/23 15:37:34;;;;;;;11.60;6.68;;;3.50;99.90;;;;;;4996697;28;20026;-80
2022/01/23 15:40:01;;;;;;;9.30;6.10;;;3.50;99.90;;;;;;4998245;28;20050;-83
2022/01/23 15:42:26;;;;;;;12.23;7.45;;;3.50;99.90;;;;;;5013713;28;20022;-82
2022/01/23 15:44:52;;;;;;;9.68;7.72;;;3.40;99.90;;;;;;5013609;28;20023;-81
2022/01/23 15:47:18;;;;;;;12.82;7.78;;;3.30;99.90;;;;;;5012485;28;20032;-79
2022/01/23 15:49:43;;;;;;;12.38;7.90;;;3.30;99.90;;;;;;5012330;28;20117;-79
2022/01/23 15:52:10;;;;;;;11.63;7.53;;;3.40;99.90;;;;;;5012655;28;20030;-79
2022/01/23 15:54:36;;;;;;;14.90;8.23;;;3.20;99.90;;;;;;4996872;28;20031;-80
2022/01/23 15:57:03;;;;;;;13.18;9.20;;;3.20;99.90;;;;;;5012718;28;20022;-79
2022/01/23 15:59:29;;;;;;;13.15;8.27;;;3.20;99.90;;;;;;4995516;28;20030;-79
2022/01/23 16:01:54;;;;;;;11.05;8.18;;;3.20;99.90;;;;;;4996117;28;20109;-78
2022/01/23 16:04:22;;;;;;;13.65;9.00;;;3.10;99.90;;;;;;5010798;28;20033;-75
2022/01/23 16:06:48;;;;;;;13.05;8.30;;;3.10;99.90;;;;;;4995641;28;20042;-75
2022/01/23 16:09:14;;;;;;;11.77;8.75;;;3.00;99.90;;;;;;4995652;28;20018;-79
2022/01/23 16:11:40;;;;;;;13.88;8.20;;;3.00;99.90;;;;;;5010862;28;20561;-76
2022/01/23 16:14:07;;;;;;;12.68;7.95;;;2.90;99.90;;;;;;5010968;28;20496;-79
2022/01/23 16:16:33;;;;;;;14.25;8.95;;;2.90;99.90;;;;;;5011762;28;20062;-85